Time;durP1;ratioP1;P1;durP2;ratioP2;P2;SDS_P1;SDS_P2;PMS_P1;PMS_P2;Temp;Humidity;BMP_temperature;BMP_pressure;BME280_temperature;BME280_humidity;BME280_pressure;Samples;Min_cycle;Max_cycle;Signal;HPM_P1;HPM_P2
2021/07/09 00:01:45;;;;;;;6.03;5.43;;;18.00;99.90;;;;;;5105644;28;20226;-51
2021/07/09 00:04:14;;;;;;;6.37;5.73;;;18.00;99.90;;;;;;5102606;28;20186;-49
2021/07/09 00:06:41;;;;;;;5.83;5.43;;;18.00;99.90;;;;;;5092593;28;20205;-48
2021/07/09 00:09:09;;;;;;;6.77;5.90;;;18.00;99.90;;;;;;5100854;28;20209;-50
2021/07/09 00:11:38;;;;;;;5.80;5.40;;;18.00;99.90;;;;;;5105577;28;20197;-49
2021/07/09 00:14:06;;;;;;;6.90;6.33;;;18.00;99.90;;;;;;5101856;28;20206;-50
2021/07/09 00:16:32;;;;;;;5.93;5.33;;;18.00;99.90;;;;;;5105411;28;20196;-50
2021/07/09 00:19:02;;;;;;;6.03;5.53;;;18.00;99.90;;;;;;5102724;28;20189;-52
2021/07/09 00:21:28;;;;;;;6.20;5.70;;;18.00;99.90;;;;;;5104211;28;20280;-49
2021/07/09 00:23:55;;;;;;;6.67;5.77;;;18.00;99.90;;;;;;5090080;28;20218;-51
2021/07/09 00:26:23;;;;;;;6.10;5.70;;;18.00;99.90;;;;;;5102774;28;20898;-46
2021/07/09 00:28:50;;;;;;;8.33;5.60;;;18.00;99.90;;;;;;5103788;28;20209;-53
2021/07/09 00:31:16;;;;;;;5.40;5.10;;;18.00;99.90;;;;;;5102279;28;20198;-48
2021/07/09 00:33:43;;;;;;;5.73;5.23;;;18.00;99.90;;;;;;5104980;28;20618;-50
2021/07/09 00:36:10;;;;;;;6.47;5.53;;;18.10;99.90;;;;;;5100864;28;20190;-51
2021/07/09 00:38:37;;;;;;;7.17;5.33;;;18.00;99.90;;;;;;5089694;28;20208;-51
2021/07/09 00:41:03;;;;;;;6.37;5.53;;;18.00;99.90;;;;;;5101557;28;20193;-47
2021/07/09 00:43:32;;;;;;;7.87;5.20;;;18.00;99.90;;;;;;5096919;28;20702;-50
2021/07/09 00:45:58;;;;;;;6.53;5.37;;;17.90;99.90;;;;;;5102737;28;20198;-49
2021/07/09 00:48:28;;;;;;;5.53;5.13;;;17.90;99.90;;;;;;5103110;28;20216;-47
2021/07/09 00:50:56;;;;;;;6.20;5.60;;;17.90;99.90;;;;;;5102249;28;20211;-52
2021/07/09 00:53:23;;;;;;;5.83;5.23;;;17.90;99.90;;;;;;5088193;28;24741;-46
2021/07/09 00:55:50;;;;;;;5.60;5.10;;;17.90;99.90;;;;;;5104546;28;20193;-51
2021/07/09 00:58:16;;;;;;;6.77;5.27;;;17.90;99.90;;;;;;5101239;28;20181;-52
2021/07/09 01:00:44;;;;;;;6.17;5.57;;;17.80;99.90;;;;;;5104716;28;20682;-48
2021/07/09 01:03:11;;;;;;;5.87;5.30;;;17.80;99.90;;;;;;5100728;28;20197;-49
2021/07/09 01:05:38;;;;;;;6.50;5.90;;;17.80;99.90;;;;;;5104671;28;20193;-46
2021/07/09 01:08:05;;;;;;;6.27;5.77;;;17.70;99.90;;;;;;5056146;28;998474;-50
2021/07/09 01:10:32;;;;;;;6.63;6.10;;;17.70;99.90;;;;;;5103557;28;20193;-48
2021/07/09 01:12:59;;;;;;;6.83;6.23;;;17.70;99.90;;;;;;5103191;28;20586;-49
2021/07/09 01:15:26;;;;;;;5.67;5.27;;;17.70;99.90;;;;;;5104275;28;20189;-49
2021/07/09 01:17:54;;;;;;;6.83;6.13;;;17.70;99.90;;;;;;5104790;28;20196;-46
2021/07/09 01:20:22;;;;;;;6.60;6.00;;;17.70;99.90;;;;;;5102578;28;20192;-45
2021/07/09 01:22:50;;;;;;;6.40;5.83;;;17.70;99.90;;;;;;5103200;28;20697;-49
2021/07/09 01:25:20;;;;;;;6.43;5.93;;;17.70;99.90;;;;;;5088018;28;20432;-47
2021/07/09 01:27:49;;;;;;;6.20;5.80;;;17.70;99.90;;;;;;5104961;28;20185;-47
2021/07/09 01:30:18;;;;;;;6.13;5.73;;;17.70;99.90;;;;;;5099348;28;20428;-48
2021/07/09 01:32:45;;;;;;;6.53;6.03;;;17.70;99.90;;;;;;5103942;28;20217;-47
2021/07/09 01:35:13;;;;;;;6.47;5.87;;;17.70;99.90;;;;;;5101194;28;20832;-47
2021/07/09 01:37:40;;;;;;;6.00;5.60;;;17.70;99.90;;;;;;5104323;28;20200;-47
2021/07/09 01:40:09;;;;;;;6.70;6.07;;;17.70;99.90;;;;;;5088772;28;20200;-51
2021/07/09 01:42:37;;;;;;;6.10;5.60;;;17.70;99.90;;;;;;5104998;28;20217;-46
2021/07/09 01:45:05;;;;;;;8.23;6.23;;;17.80;99.90;;;;;;5083733;27;20201;-50
2021/07/09 01:47:32;;;;;;;6.73;5.83;;;17.70;99.90;;;;;;5084210;28;20202;-48
2021/07/09 01:50:01;;;;;;;6.30;5.70;;;17.80;99.90;;;;;;5081814;28;20220;-50
2021/07/09 01:52:29;;;;;;;7.10;5.43;;;17.70;99.90;;;;;;5098952;28;20220;-49
2021/07/09 01:54:56;;;;;;;6.30;5.70;;;17.70;99.90;;;;;;5081940;28;20190;-47
2021/07/09 01:57:23;;;;;;;6.03;5.67;;;17.70;99.90;;;;;;5080199;28;20811;-47
2021/07/09 01:59:51;;;;;;;6.30;5.70;;;17.70;99.90;;;;;;5104439;28;20197;-52
2021/07/09 02:02:18;;;;;;;6.03;5.50;;;17.70;99.90;;;;;;5099936;28;21009;-48
2021/07/09 02:04:47;;;;;;;6.53;5.93;;;17.70;99.90;;;;;;5104701;28;20267;-47
2021/07/09 02:07:14;;;;;;;6.20;5.70;;;17.70;99.90;;;;;;5100260;28;20195;-46
2021/07/09 02:09:43;;;;;;;5.90;5.47;;;17.70;99.90;;;;;;5103777;28;20589;-48
2021/07/09 02:12:10;;;;;;;6.00;5.60;;;17.70;99.90;;;;;;5086207;28;21050;-50
2021/07/09 02:14:37;;;;;;;5.73;5.20;;;17.70;99.90;;;;;;5104500;28;20212;-51
2021/07/09 02:17:08;;;;;;;5.90;5.50;;;17.60;99.90;;;;;;5101430;28;20189;-53
2021/07/09 02:19:35;;;;;;;8.33;5.57;;;17.50;99.90;;;;;;5104052;28;20185;-48
2021/07/09 02:22:03;;;;;;;5.87;5.37;;;17.50;99.90;;;;;;5101231;28;20220;-49
2021/07/09 02:24:32;;;;;;;6.23;5.63;;;17.50;99.90;;;;;;5103202;27;20224;-48
2021/07/09 02:26:58;;;;;;;5.83;5.33;;;17.40;99.90;;;;;;5095398;28;20555;-52
2021/07/09 02:29:25;;;;;;;6.60;5.90;;;17.40;99.90;;;;;;5096139;28;20217;-47
2021/07/09 02:31:52;;;;;;;6.63;6.00;;;17.40;99.90;;;;;;5103629;28;20219;-52
2021/07/09 02:34:20;;;;;;;6.40;5.43;;;17.40;99.90;;;;;;5101311;28;20193;-46
2021/07/09 02:36:47;;;;;;;6.93;6.20;;;17.40;99.90;;;;;;5103750;28;20197;-47
2021/07/09 02:39:13;;;;;;;7.00;6.40;;;17.50;99.90;;;;;;5099399;28;20184;-45
2021/07/09 02:41:40;;;;;;;8.33;6.80;;;17.50;99.90;;;;;;5104117;28;20242;-46
2021/07/09 02:44:07;;;;;;;7.20;6.60;;;17.50;99.90;;;;;;5086418;28;20193;-49
2021/07/09 02:46:33;;;;;;;6.37;5.77;;;17.50;99.90;;;;;;5103681;28;20197;-47
2021/07/09 02:49:00;;;;;;;9.13;6.33;;;17.50;99.90;;;;;;5101388;28;20205;-47
2021/07/09 02:51:28;;;;;;;6.67;6.07;;;17.60;99.90;;;;;;5100887;28;20196;-50
2021/07/09 02:53:54;;;;;;;6.93;6.23;;;17.60;99.90;;;;;;5101862;28;20225;-48
2021/07/09 02:56:21;;;;;;;7.13;6.57;;;17.60;99.90;;;;;;5101393;28;20196;-48
2021/07/09 02:58:48;;;;;;;6.67;6.10;;;17.60;99.90;;;;;;5090070;28;20582;-48
2021/07/09 03:01:14;;;;;;;7.53;6.80;;;17.60;99.90;;;;;;5099840;28;20211;-47
2021/07/09 03:03:41;;;;;;;6.90;6.30;;;17.60;99.90;;;;;;5103822;28;20205;-46
2021/07/09 03:06:08;;;;;;;7.23;6.63;;;17.60;99.90;;;;;;5099525;28;20212;-47
2021/07/09 03:08:35;;;;;;;7.07;6.50;;;17.60;99.90;;;;;;5103440;28;20554;-45
2021/07/09 03:11:02;;;;;;;8.40;6.63;;;17.60;99.90;;;;;;5100918;28;20205;-49
2021/07/09 03:13:29;;;;;;;8.73;6.90;;;17.60;99.90;;;;;;5102666;28;20206;-46
2021/07/09 03:15:56;;;;;;;10.07;7.10;;;17.60;99.90;;;;;;5088358;28;20209;-50
2021/07/09 03:18:23;;;;;;;7.60;6.90;;;17.60;99.90;;;;;;5101568;28;20193;-46
2021/07/09 03:20:49;;;;;;;8.13;7.53;;;17.60;99.90;;;;;;5103070;28;20596;-51
2021/07/09 03:23:16;;;;;;;7.90;7.30;;;17.60;99.90;;;;;;5099751;28;20201;-46
2021/07/09 03:25:44;;;;;;;9.67;8.83;;;17.60;99.90;;;;;;5103596;28;20196;-46
2021/07/09 03:28:11;;;;;;;8.27;7.53;;;17.60;99.90;;;;;;5099293;28;20192;-46
2021/07/09 03:30:37;;;;;;;8.20;7.50;;;17.60;99.90;;;;;;5089578;28;20713;-47
2021/07/09 03:33:04;;;;;;;8.53;7.70;;;17.50;99.90;;;;;;5100083;28;20221;-51
2021/07/09 03:35:31;;;;;;;9.87;8.83;;;17.50;99.90;;;;;;5102874;28;20196;-46
2021/07/09 03:37:58;;;;;;;8.70;7.90;;;17.50;99.90;;;;;;5101323;28;20193;-50
2021/07/09 03:40:24;;;;;;;8.30;7.53;;;17.50;99.90;;;;;;5100953;28;20264;-46
2021/07/09 03:42:52;;;;;;;9.37;8.30;;;17.50;99.90;;;;;;5102817;28;20217;-50
2021/07/09 03:45:19;;;;;;;7.83;7.23;;;17.50;99.90;;;;;;5085383;28;22126;-49
2021/07/09 03:47:46;;;;;;;8.13;7.43;;;17.40;99.90;;;;;;5103109;28;20243;-49
2021/07/09 03:50:14;;;;;;;8.97;8.17;;;17.40;99.90;;;;;;5097929;28;20210;-46
2021/07/09 03:52:41;;;;;;;9.57;7.60;;;17.40;99.90;;;;;;5102943;28;20698;-44
2021/07/09 03:55:08;;;;;;;10.20;7.77;;;17.40;99.90;;;;;;5099057;28;20186;-47
2021/07/09 03:57:35;;;;;;;10.47;7.67;;;17.40;99.90;;;;;;5102998;28;20194;-45
2021/07/09 04:00:05;;;;;;;8.37;7.67;;;17.30;99.90;;;;;;5100177;28;20193;-48
2021/07/09 04:02:39;;;;;;;8.37;7.57;;;17.30;99.90;;;;;;5092956;28;20225;-46
2021/07/09 04:05:07;;;;;;;9.07;7.60;;;17.30;99.90;;;;;;5102817;28;20229;-46
2021/07/09 04:07:34;;;;;;;8.97;7.63;;;17.40;99.90;;;;;;5106655;28;20220;-46
2021/07/09 04:10:01;;;;;;;9.13;8.30;;;17.30;99.90;;;;;;5103854;28;20205;-50
2021/07/09 04:12:27;;;;;;;9.13;8.23;;;17.40;99.90;;;;;;5105180;28;20201;-45
2021/07/09 04:14:54;;;;;;;8.43;7.73;;;17.40;99.90;;;;;;5105469;28;20186;-46
2021/07/09 04:17:22;;;;;;;9.30;8.20;;;17.40;99.90;;;;;;5090689;28;20217;-45
2021/07/09 04:19:51;;;;;;;8.50;7.57;;;17.40;99.90;;;;;;5106182;28;20201;-46
2021/07/09 04:22:18;;;;;;;8.80;8.00;;;17.40;99.90;;;;;;5100357;28;20304;-45
2021/07/09 04:24:44;;;;;;;9.07;8.23;;;17.40;99.90;;;;;;5104732;28;20194;-48
2021/07/09 04:27:11;;;;;;;8.77;7.87;;;17.40;99.90;;;;;;5102198;28;20188;-46
2021/07/09 04:29:38;;;;;;;10.80;8.47;;;17.40;99.90;;;;;;5106185;28;20224;-45
2021/07/09 04:32:05;;;;;;;10.83;8.93;;;17.50;99.90;;;;;;5102983;28;20216;-51
2021/07/09 04:34:33;;;;;;;10.53;9.23;;;17.50;99.90;;;;;;5092050;28;20208;-47
2021/07/09 04:37:00;;;;;;;9.67;8.73;;;17.50;99.90;;;;;;5103695;28;20200;-50
2021/07/09 04:39:27;;;;;;;9.27;8.47;;;17.60;99.90;;;;;;5104052;28;20204;-46
2021/07/09 04:41:53;;;;;;;11.33;9.33;;;17.60;99.90;;;;;;5105012;28;20225;-48
2021/07/09 04:44:20;;;;;;;10.43;9.37;;;17.70;99.90;;;;;;5103737;28;20905;-47
2021/07/09 04:46:47;;;;;;;10.03;9.10;;;17.70;99.90;;;;;;5106046;28;20193;-47
2021/07/09 04:49:13;;;;;;;9.63;8.73;;;17.70;99.90;;;;;;5087714;28;21156;-45
2021/07/09 04:51:41;;;;;;;9.17;7.77;;;17.80;99.90;;;;;;5104977;28;20203;-45
2021/07/09 04:54:08;;;;;;;9.23;8.53;;;17.80;99.90;;;;;;5101281;28;20202;-48
2021/07/09 04:56:35;;;;;;;9.60;8.57;;;17.80;99.90;;;;;;5105672;28;20198;-45
2021/07/09 04:59:01;;;;;;;8.47;7.60;;;17.80;99.90;;;;;;5103120;28;20186;-48
2021/07/09 05:01:28;;;;;;;9.40;8.43;;;17.90;99.90;;;;;;5104796;28;20380;-45
2021/07/09 05:03:54;;;;;;;9.93;8.80;;;17.90;99.90;;;;;;5104488;28;20213;-46
2021/07/09 05:06:21;;;;;;;8.80;8.10;;;17.90;99.90;;;;;;5089269;28;20197;-48
2021/07/09 05:08:49;;;;;;;8.67;8.07;;;17.90;99.90;;;;;;5105091;28;20198;-48
2021/07/09 05:11:16;;;;;;;8.93;8.07;;;17.90;99.90;;;;;;5101489;28;20232;-45
2021/07/09 05:13:43;;;;;;;10.10;8.10;;;17.90;99.90;;;;;;5104899;28;20675;-48
2021/07/09 05:16:09;;;;;;;9.53;8.47;;;17.90;99.90;;;;;;5101307;28;20185;-49
2021/07/09 05:18:36;;;;;;;10.90;8.03;;;17.90;99.90;;;;;;5105498;28;20190;-49
2021/07/09 05:21:03;;;;;;;9.90;8.73;;;17.90;99.90;;;;;;5092821;28;20709;-50
2021/07/09 05:23:30;;;;;;;9.37;8.57;;;17.90;99.90;;;;;;5098343;28;20217;-45
2021/07/09 05:25:58;;;;;;;10.17;8.30;;;18.00;99.90;;;;;;5103838;28;20196;-50
2021/07/09 05:28:25;;;;;;;8.33;7.67;;;18.00;99.90;;;;;;5103562;28;20857;-48
2021/07/09 05:30:52;;;;;;;8.03;7.13;;;18.10;99.90;;;;;;5104489;28;20213;-48
2021/07/09 05:33:18;;;;;;;10.20;8.00;;;18.10;99.90;;;;;;5102079;28;20213;-45
2021/07/09 05:35:46;;;;;;;8.10;7.30;;;18.10;99.90;;;;;;5105236;28;20189;-49
2021/07/09 05:38:12;;;;;;;8.60;7.87;;;18.10;99.90;;;;;;5086852;28;20208;-45
2021/07/09 05:40:39;;;;;;;8.60;7.70;;;18.20;99.90;;;;;;5104362;28;20193;-45
2021/07/09 05:43:08;;;;;;;13.00;7.37;;;18.20;99.90;;;;;;5101192;28;20205;-50
2021/07/09 05:45:35;;;;;;;9.27;7.53;;;18.30;99.90;;;;;;5104862;28;20677;-45
2021/07/09 05:48:02;;;;;;;8.60;7.70;;;18.30;99.90;;;;;;5102107;28;20186;-49
2021/07/09 05:50:29;;;;;;;7.87;7.13;;;18.40;99.90;;;;;;5102853;27;20212;-46
2021/07/09 05:52:55;;;;;;;8.83;6.87;;;18.40;99.90;;;;;;5085882;28;20229;-51
2021/07/09 05:55:22;;;;;;;10.13;7.30;;;18.40;99.90;;;;;;5102038;28;20178;-46
2021/07/09 05:57:49;;;;;;;7.97;7.27;;;18.40;99.90;;;;;;5102057;28;20212;-50
2021/07/09 06:00:18;;;;;;;8.67;7.43;;;18.40;99.90;;;;;;5100344;28;20782;-48
2021/07/09 06:02:45;;;;;;;6.67;6.07;;;18.50;99.90;;;;;;5104995;28;20678;-49
2021/07/09 06:05:12;;;;;;;7.73;6.67;;;18.50;99.90;;;;;;5100081;28;20894;-46
2021/07/09 06:07:39;;;;;;;6.83;6.13;;;18.50;99.90;;;;;;5090217;28;20221;-46
2021/07/09 06:10:07;;;;;;;7.10;6.33;;;18.60;99.90;;;;;;5100687;28;20205;-49
2021/07/09 06:12:34;;;;;;;7.03;5.93;;;18.60;99.90;;;;;;5104383;27;20224;-46
2021/07/09 06:15:00;;;;;;;6.30;5.70;;;18.70;99.90;;;;;;5101933;28;20200;-50
2021/07/09 06:17:28;;;;;;;6.87;5.47;;;18.70;99.90;;;;;;5102810;28;20293;-47
2021/07/09 06:19:55;;;;;;;7.90;5.57;;;18.80;99.90;;;;;;5101392;28;20204;-52
2021/07/09 06:22:22;;;;;;;5.93;5.37;;;18.80;99.90;;;;;;5098816;28;20212;-48
2021/07/09 06:24:49;;;;;;;5.30;4.90;;;18.80;99.90;;;;;;5089322;28;20302;-47
2021/07/09 06:27:15;;;;;;;5.73;5.07;;;18.90;99.90;;;;;;5099771;28;20193;-46
2021/07/09 06:29:42;;;;;;;5.33;4.83;;;18.90;99.90;;;;;;5103844;28;20200;-46
2021/07/09 06:32:10;;;;;;;6.20;4.60;;;18.90;99.90;;;;;;5099853;28;20205;-50
2021/07/09 06:34:38;;;;;;;5.37;4.87;;;18.90;99.90;;;;;;5104020;28;20200;-50
2021/07/09 06:37:04;;;;;;;7.77;5.17;;;19.00;99.90;;;;;;5100734;28;20639;-51
2021/07/09 06:39:31;;;;;;;5.03;4.57;;;19.10;99.90;;;;;;5089114;28;20205;-49
2021/07/09 06:41:58;;;;;;;5.70;5.00;;;19.10;99.90;;;;;;5100759;28;20218;-46
2021/07/09 06:44:24;;;;;;;4.67;4.10;;;19.10;99.90;;;;;;5101970;28;20190;-47
2021/07/09 06:46:51;;;;;;;5.80;4.47;;;19.10;99.90;;;;;;5103392;28;20197;-52
2021/07/09 06:49:17;;;;;;;5.70;4.30;;;19.10;99.90;;;;;;5098787;28;20194;-45
2021/07/09 06:51:45;;;;;;;5.20;4.47;;;19.20;99.90;;;;;;5103373;28;20212;-49
2021/07/09 06:54:12;;;;;;;4.87;4.30;;;19.20;99.90;;;;;;5084665;28;20208;-48
2021/07/09 06:56:38;;;;;;;4.57;4.17;;;19.20;99.90;;;;;;5103793;27;20208;-46
2021/07/09 06:59:05;;;;;;;4.90;4.40;;;19.20;99.90;;;;;;5100007;28;20674;-51
2021/07/09 07:01:32;;;;;;;4.97;4.43;;;19.20;99.90;;;;;;5103318;28;20192;-46
2021/07/09 07:03:58;;;;;;;4.73;4.37;;;19.20;99.90;;;;;;5101693;28;20205;-50
2021/07/09 07:06:25;;;;;;;5.57;5.00;;;19.20;99.90;;;;;;5101701;28;20189;-47
2021/07/09 07:08:53;;;;;;;5.87;5.10;;;19.30;99.90;;;;;;5099771;28;20200;-49
2021/07/09 07:11:19;;;;;;;6.50;5.47;;;19.30;99.90;;;;;;5091049;28;20220;-52
2021/07/09 07:13:46;;;;;;;6.90;6.17;;;19.40;99.90;;;;;;5103441;28;20213;-46
2021/07/09 07:16:13;;;;;;;6.60;5.90;;;19.40;99.90;;;;;;5099323;28;20896;-49
2021/07/09 07:18:40;;;;;;;7.80;6.47;;;19.40;99.90;;;;;;5103506;28;20193;-52
2021/07/09 07:21:06;;;;;;;7.50;6.10;;;19.40;99.90;;;;;;5099907;28;20203;-52
2021/07/09 07:23:33;;;;;;;6.60;5.97;;;19.40;99.90;;;;;;5099145;28;20217;-46
2021/07/09 07:26:01;;;;;;;8.10;5.30;;;19.40;99.90;;;;;;5087217;28;20289;-50
2021/07/09 07:28:28;;;;;;;6.97;5.87;;;19.40;99.90;;;;;;5102135;28;20186;-49
2021/07/09 07:30:55;;;;;;;6.73;6.17;;;19.40;99.90;;;;;;5101968;28;20583;-49
2021/07/09 07:33:21;;;;;;;8.80;6.77;;;19.40;99.90;;;;;;5101463;28;20205;-48
2021/07/09 07:35:48;;;;;;;7.17;6.40;;;19.40;99.90;;;;;;5104486;28;20561;-48
2021/07/09 07:38:16;;;;;;;7.73;6.43;;;19.50;99.90;;;;;;5103446;28;20185;-47
2021/07/09 07:40:42;;;;;;;6.27;5.73;;;19.50;99.90;;;;;;5093489;28;20193;-52
2021/07/09 07:43:10;;;;;;;7.37;5.70;;;19.50;99.90;;;;;;5102889;28;20209;-50
2021/07/09 07:45:37;;;;;;;6.07;5.47;;;19.60;99.90;;;;;;5107362;28;20197;-47
2021/07/09 07:48:04;;;;;;;5.70;5.30;;;19.60;99.90;;;;;;5104315;28;20193;-50
2021/07/09 07:50:31;;;;;;;5.37;4.87;;;19.60;99.90;;;;;;5105623;28;20197;-47
2021/07/09 07:52:57;;;;;;;4.90;4.40;;;19.60;99.90;;;;;;5101607;28;20216;-46
2021/07/09 07:55:24;;;;;;;6.27;5.27;;;19.60;99.90;;;;;;5090978;28;24653;-46
2021/07/09 07:57:51;;;;;;;6.50;5.47;;;19.70;99.90;;;;;;5099655;28;20246;-47
2021/07/09 08:00:19;;;;;;;5.60;5.17;;;19.70;99.90;;;;;;5103281;28;20209;-45
2021/07/09 08:02:46;;;;;;;5.13;4.70;;;19.80;99.90;;;;;;5106517;28;20533;-46
2021/07/09 08:05:13;;;;;;;5.27;4.33;;;19.70;99.90;;;;;;5102770;28;20255;-46
2021/07/09 08:07:41;;;;;;;5.07;4.70;;;19.80;99.90;;;;;;5106568;28;20205;-46
2021/07/09 08:10:09;;;;;;;5.17;4.67;;;19.80;99.90;;;;;;5103108;28;20189;-48
2021/07/09 08:12:35;;;;;;;5.23;4.83;;;19.80;99.90;;;;;;5092310;28;20694;-46
2021/07/09 08:15:02;;;;;;;6.03;5.20;;;19.80;99.90;;;;;;5103810;28;20193;-50
2021/07/09 08:17:30;;;;;;;6.87;4.40;;;19.80;99.90;;;;;;5105450;28;20189;-47
2021/07/09 08:19:57;;;;;;;4.73;4.43;;;19.90;99.90;;;;;;5104918;28;20196;-47
2021/07/09 08:22:24;;;;;;;4.60;4.23;;;19.90;99.90;;;;;;5103655;28;20856;-49
2021/07/09 08:24:50;;;;;;;5.43;4.00;;;19.90;99.90;;;;;;5105258;28;20682;-49
2021/07/09 08:27:17;;;;;;;8.53;3.97;;;19.90;99.90;;;;;;5088782;28;20228;-48
2021/07/09 08:29:44;;;;;;;3.87;3.57;;;19.90;99.90;;;;;;5105776;28;20197;-49
2021/07/09 08:32:10;;;;;;;6.07;4.20;;;19.90;99.90;;;;;;5101872;28;20217;-48
2021/07/09 08:34:38;;;;;;;3.83;3.47;;;19.90;99.90;;;;;;5106664;28;20205;-50
2021/07/09 08:37:05;;;;;;;3.77;3.40;;;20.00;99.90;;;;;;5103079;28;20666;-50
2021/07/09 08:39:32;;;;;;;3.57;3.17;;;20.00;99.90;;;;;;5105348;28;20644;-46
2021/07/09 08:41:58;;;;;;;3.83;3.20;;;20.10;99.90;;;;;;5104145;28;20209;-50
2021/07/09 08:44:25;;;;;;;5.33;3.07;;;20.10;99.90;;;;;;5090026;28;20197;-46
2021/07/09 08:46:56;;;;;;;3.57;3.27;;;20.20;99.90;;;;;;5105086;28;20190;-49
2021/07/09 08:49:23;;;;;;;3.77;3.30;;;20.30;99.90;;;;;;5103431;28;20177;-48
2021/07/09 08:51:51;;;;;;;4.93;3.30;;;20.40;99.90;;;;;;5105040;28;20631;-49
2021/07/09 08:54:21;;;;;;;4.13;3.70;;;20.50;99.90;;;;;;5102028;28;20197;-48
2021/07/09 08:56:51;;;;;;;3.80;3.50;;;20.60;99.90;;;;;;5105978;28;20193;-49
2021/07/09 08:59:18;;;;;;;5.07;3.50;;;20.60;99.90;;;;;;5088081;28;20429;-48
2021/07/09 09:01:52;;;;;;;4.90;3.47;;;20.70;99.90;;;;;;5105944;28;20189;-49
2021/07/09 09:04:26;;;;;;;4.37;3.70;;;20.80;99.90;;;;;;5102647;28;20177;-50
2021/07/09 09:07:05;;;;;;;3.20;3.00;;;20.70;99.90;;;;;;5104661;28;20216;-47
2021/07/09 09:09:34;;;;;;;3.60;3.30;;;20.70;99.90;;;;;;5105137;28;20197;-47
2021/07/09 09:12:08;;;;;;;6.60;3.13;;;20.80;99.90;;;;;;5103101;28;20267;-49
2021/07/09 09:14:37;;;;;;;2.97;2.77;;;20.80;99.90;;;;;;5105346;28;20201;-47
2021/07/09 09:17:26;;;;;;;3.30;2.70;;;21.00;99.90;;;;;;5088102;28;20193;-50
2021/07/09 09:20:11;;;;;;;3.40;2.88;;;21.00;99.90;;;;;;5104310;28;20209;-47
2021/07/09 09:22:54;;;;;;;3.03;2.83;;;21.20;99.90;;;;;;5101014;28;20679;-48
2021/07/09 09:25:24;;;;;;;2.83;2.50;;;21.30;99.90;;;;;;5102565;28;20192;-47
2021/07/09 09:27:58;;;;;;;3.15;2.75;;;21.30;99.90;;;;;;5105045;28;20270;-49
2021/07/09 09:30:25;;;;;;;3.00;2.80;;;21.30;99.90;;;;;;5098877;28;20188;-48
2021/07/09 09:32:53;;;;;;;3.23;2.93;;;21.30;99.90;;;;;;5090560;28;20676;-48
2021/07/09 09:35:24;;;;;;;3.08;2.72;;;21.40;99.90;;;;;;5101753;28;20313;-48
2021/07/09 09:37:53;;;;;;;2.80;2.20;;;21.50;99.90;;;;;;5104848;28;20192;-46
2021/07/09 09:40:21;;;;;;;4.80;2.30;;;21.50;99.90;;;;;;5092497;28;20186;-49
2021/07/09 09:42:48;;;;;;;5.07;2.70;;;21.40;99.90;;;;;;5104786;28;20228;-46
2021/07/09 09:45:19;;;;;;;4.03;2.00;;;21.50;99.90;;;;;;5101041;28;20181;-48
2021/07/09 09:47:46;;;;;;;2.28;1.90;;;21.50;99.90;;;;;;5090330;28;20197;-46
2021/07/09 09:50:15;;;;;;;2.60;1.90;;;21.50;99.90;;;;;;5099521;28;20212;-47
2021/07/09 09:52:44;;;;;;;3.47;1.90;;;21.50;99.90;;;;;;5104680;28;20216;-50
2021/07/09 09:55:13;;;;;;;1.90;1.80;;;21.50;99.90;;;;;;5099831;28;20185;-46
2021/07/09 09:57:41;;;;;;;2.75;2.50;;;21.60;99.90;;;;;;5104627;28;20193;-48
2021/07/09 10:00:10;;;;;;;5.10;2.17;;;21.60;99.90;;;;;;5100403;28;20198;-50
2021/07/09 10:02:39;;;;;;;1.95;1.85;;;21.60;99.90;;;;;;5090634;28;20209;-46
2021/07/09 10:05:06;;;;;;;2.22;2.10;;;21.50;99.90;;;;;;5101145;28;20672;-48
2021/07/09 10:07:36;;;;;;;2.33;2.13;;;21.50;99.90;;;;;;5104459;28;20566;-46
2021/07/09 10:10:05;;;;;;;2.50;2.30;;;21.50;99.90;;;;;;5100968;28;20197;-51
2021/07/09 10:12:33;;;;;;;2.90;2.10;;;21.50;99.90;;;;;;5103548;28;20228;-45
2021/07/09 10:15:01;;;;;;;2.47;2.25;;;21.50;99.90;;;;;;5102139;28;20197;-48
2021/07/09 10:17:28;;;;;;;2.80;2.50;;;21.50;99.90;;;;;;5102337;28;20190;-46
2021/07/09 10:19:55;;;;;;;3.45;2.47;;;21.50;99.90;;;;;;5089066;28;20205;-49
2021/07/09 10:22:22;;;;;;;4.72;2.60;;;21.40;99.90;;;;;;5101670;28;20831;-46
2021/07/09 10:24:51;;;;;;;3.70;2.15;;;21.40;99.90;;;;;;5103657;28;20186;-49
2021/07/09 10:27:20;;;;;;;2.65;2.45;;;21.40;99.90;;;;;;5101067;28;20189;-46
2021/07/09 10:29:50;;;;;;;2.58;2.30;;;21.50;99.90;;;;;;5103578;28;20254;-46
2021/07/09 10:32:32;;;;;;;2.35;2.13;;;21.50;99.90;;;;;;5100300;28;20711;-46
2021/07/09 10:34:58;;;;;;;2.42;2.22;;;21.50;99.90;;;;;;5088203;28;20201;-46
2021/07/09 10:37:28;;;;;;;2.38;2.13;;;21.50;99.90;;;;;;5101514;28;20758;-46
2021/07/09 10:40:06;;;;;;;4.93;2.72;;;21.60;99.90;;;;;;5101835;28;20246;-47
2021/07/09 10:42:39;;;;;;;12.32;7.30;;;21.70;99.90;;;;;;5103497;28;20209;-46
2021/07/09 10:45:31;;;;;;;4.55;2.80;;;21.70;99.90;;;;;;5100494;28;20189;-47
2021/07/09 10:48:08;;;;;;;7.40;3.28;;;21.70;99.90;;;;;;5102149;28;20192;-48
2021/07/09 10:50:41;;;;;;;3.00;2.80;;;21.80;99.90;;;;;;5089063;28;20223;-46
2021/07/09 10:53:25;;;;;;;3.80;3.45;;;21.80;99.90;;;;;;5098930;28;20217;-49
2021/07/09 10:55:54;;;;;;;2.80;2.55;;;21.90;99.90;;;;;;5102779;28;20191;-48
2021/07/09 10:58:27;;;;;;;2.80;2.63;;;22.00;99.90;;;;;;5101207;28;20213;-46
2021/07/09 11:00:59;;;;;;;2.47;2.28;;;22.10;99.90;;;;;;5102540;28;20254;-48
2021/07/09 11:03:29;;;;;;;5.43;2.42;;;22.10;99.90;;;;;;5101856;28;20288;-46
2021/07/09 11:05:57;;;;;;;5.10;3.38;;;22.10;99.90;;;;;;5088429;28;20581;-53
2021/07/09 11:09:04;;;;;;;2.95;2.65;;;22.10;99.90;;;;;;5101603;28;20271;-46
2021/07/09 11:11:39;;;;;;;3.15;2.78;;;22.10;99.90;;;;;;5103493;28;20238;-46
2021/07/09 11:14:08;;;;;;;3.13;2.75;;;22.20;99.90;;;;;;5104339;28;20217;-49
2021/07/09 11:16:38;;;;;;;3.40;2.75;;;22.20;99.90;;;;;;5107744;28;20195;-48
2021/07/09 11:19:08;;;;;;;2.80;2.60;;;22.10;99.90;;;;;;5104406;28;20589;-47
2021/07/09 11:22:07;;;;;;;2.50;2.40;;;22.10;99.90;;;;;;5093895;28;20201;-47
2021/07/09 11:24:41;;;;;;;3.40;2.75;;;22.10;99.90;;;;;;5100296;28;20284;-47
2021/07/09 11:27:09;;;;;;;3.63;2.75;;;22.00;99.90;;;;;;5103494;28;20196;-47
2021/07/09 11:29:38;;;;;;;3.75;3.42;;;21.90;99.90;;;;;;5107398;28;20242;-47
2021/07/09 11:32:11;;;;;;;3.53;2.63;;;21.90;99.90;;;;;;5103861;28;20225;-49
2021/07/09 11:34:41;;;;;;;2.70;2.50;;;21.90;99.90;;;;;;5104384;28;20205;-47
2021/07/09 11:37:09;;;;;;;5.22;2.85;;;21.80;99.90;;;;;;5089280;28;20209;-47
2021/07/09 11:39:37;;;;;;;4.05;3.30;;;21.80;99.90;;;;;;5107000;28;20196;-49
2021/07/09 11:42:07;;;;;;;5.25;2.97;;;21.80;99.90;;;;;;5100864;28;20212;-47
2021/07/09 11:44:35;;;;;;;3.20;2.95;;;21.80;99.90;;;;;;5104424;28;20197;-48
2021/07/09 11:47:04;;;;;;;5.93;2.83;;;21.70;99.90;;;;;;5104199;28;20192;-51
2021/07/09 11:49:34;;;;;;;2.65;2.45;;;21.70;99.90;;;;;;5106121;28;20189;-49
2021/07/09 11:52:03;;;;;;;3.65;3.35;;;21.70;99.90;;;;;;5090106;28;20228;-52
2021/07/09 11:54:32;;;;;;;3.25;3.03;;;21.70;99.90;;;;;;5106144;28;20193;-51
2021/07/09 11:57:08;;;;;;;3.40;3.10;;;21.70;99.90;;;;;;5103169;28;20205;-47
2021/07/09 11:59:35;;;;;;;3.35;3.05;;;21.80;99.90;;;;;;5103838;28;20204;-49
2021/07/09 12:02:09;;;;;;;3.55;3.10;;;21.80;99.90;;;;;;5104485;28;20209;-50
2021/07/09 12:04:39;;;;;;;3.55;3.13;;;21.80;99.90;;;;;;5106771;28;20196;-50
2021/07/09 12:07:16;;;;;;;3.22;3.00;;;21.80;99.90;;;;;;5089397;28;20202;-48
2021/07/09 12:09:45;;;;;;;5.03;3.78;;;21.80;99.90;;;;;;5106191;28;20280;-51
2021/07/09 12:12:11;;;;;;;3.45;3.20;;;21.70;99.90;;;;;;5102371;28;20947;-45
2021/07/09 12:14:50;;;;;;;3.88;3.40;;;21.70;99.90;;;;;;5106749;28;20193;-48
2021/07/09 12:17:17;;;;;;;3.90;3.60;;;21.60;99.90;;;;;;5098183;28;20705;-48
2021/07/09 12:19:54;;;;;;;3.70;3.38;;;21.60;99.90;;;;;;5104654;28;20185;-47
2021/07/09 12:22:25;;;;;;;4.22;3.17;;;21.50;99.90;;;;;;5089997;28;21054;-48
2021/07/09 12:24:53;;;;;;;4.53;3.47;;;21.50;99.90;;;;;;5105350;28;20189;-49
2021/07/09 12:27:20;;;;;;;3.95;3.65;;;21.40;99.90;;;;;;5103730;28;20200;-46
2021/07/09 12:29:47;;;;;;;5.40;4.85;;;21.40;99.90;;;;;;5106477;28;20189;-48
2021/07/09 12:32:14;;;;;;;4.90;4.07;;;21.40;99.90;;;;;;5102634;28;20205;-49
2021/07/09 12:34:41;;;;;;;5.60;3.85;;;21.40;99.90;;;;;;5106561;28;20204;-47
2021/07/09 12:37:09;;;;;;;5.22;4.22;;;21.40;99.90;;;;;;5089659;28;20197;-50
2021/07/09 12:39:36;;;;;;;4.10;3.90;;;21.40;99.90;;;;;;5105587;28;20208;-46
2021/07/09 12:42:14;;;;;;;4.40;4.00;;;21.40;99.90;;;;;;5103568;28;20209;-50
2021/07/09 12:44:55;;;;;;;6.22;4.28;;;21.40;99.90;;;;;;5106057;28;20195;-49
2021/07/09 12:47:22;;;;;;;4.40;4.00;;;21.40;99.90;;;;;;5098618;28;20196;-46
2021/07/09 12:49:49;;;;;;;4.10;3.80;;;21.40;99.90;;;;;;5104234;28;20224;-48
2021/07/09 12:52:17;;;;;;;5.43;4.30;;;21.30;99.90;;;;;;5088189;28;20903;-46